Terminal Aerodrome Forecast
Issued by NWS Pittsburgh, PA

Current Version | Previous Version | Text Only | Print | Product List | Glossary Off
Versions: 1 2 3 4 5 6 7 8 9 10 11 12 13 14 15 16 17 18 19 20 21 22 23 24 25 26 27 28 29 30 31 32 33

000
FTUS41 KPBZ 280855 AAA
TAFPIT
TAF AMD
KPIT 280855Z 2809/2912 00000KT P6SM SCT250
      TEMPO 2810/2812 5SM BR
     FM281400 09005KT P6SM SCT040=

USA.gov is the U.S. government's official web portal to all federal, state and local government web resources and services.